EGNX/EMA METAR and TAF weather

Enter ICAO airport designator
Station Type Date Time Source
EGNX METAR 2019/12/13 01:20 UTC NOAA

EGNX 130120Z 25007KT 9000 FEW005 BKN009 06/06 Q0969


Station Type Date Time Source
EGNX Decoded METAR 2019/12/13 01:20 UTC NOAA

East Midlands, United Kingdom (EGNX) 52-50N 001-20W
Dec 12, 2019 - 08:20 PM EST / 2019.12.13 0120 UTC
Wind: from the WSW (250 degrees) at 8 MPH (7 KT):0
Visibility: 5 mile(s):0
Sky conditions: mostly cloudy
Temperature: 42 F (6 C)
Dew Point: 42 F (6 C)
Relative Humidity: 100%
Pressure (altimeter): 28.61 in. Hg (0969 hPa)
ob: EGNX 130120Z 25007KT 9000 FEW005 BKN009 06/06 Q0969
cycle: 1

Station Type Date Time Source
EGNX TAF 2019/12/13 01:00 UTC NOAA

TAF
AMD EGNX 130139Z 1301/1324 22008KT 9000 BKN009
BECMG 1301/1303 28014KT 9999 SCT030 PROB30
TEMPO 1301/1303 RA
TEMPO 1302/1324 26018G28KT
TEMPO 1303/1319 6000 SHRA BKN012

Example: see airport list